Time;durP1;ratioP1;P1;durP2;ratioP2;P2;SDS_P1;SDS_P2;PMS_P1;PMS_P2;Temp;Humidity;BMP_temperature;BMP_pressure;BME280_temperature;BME280_humidity;BME280_pressure;Samples;Min_cycle;Max_cycle;Signal;HPM_P1;HPM_P2
2023/10/11 00:02:30;;;;;;;;;;;;;;;16.19;76.66;101398.25;5060773;28;19917;-89
2023/10/11 00:04:56;;;;;;;;;;;;;;;16.18;77.16;101395.66;5060963;28;19955;-88
2023/10/11 00:07:25;;;;;;;;;;;;;;;16.18;77.04;101400.94;5076942;28;19923;-88
2023/10/11 00:09:56;;;;;;;;;;;;;;;16.19;77.55;101392.09;5076176;28;20279;-88
2023/10/11 00:12:31;;;;;;;;;;;;;;;16.17;76.79;101399.19;5076637;28;19916;-88
2023/10/11 00:15:10;;;;;;;;;;;;;;;16.14;77.33;101394.00;5076475;28;19965;-88
2023/10/11 00:17:36;;;;;;;;;;;;;;;16.09;76.49;101386.16;5076309;28;20318;-88
2023/10/11 00:20:15;;;;;;;;;;;;;;;16.10;75.66;101398.47;5076743;28;19916;-87
2023/10/11 00:22:41;;;;;;;;;;;;;;;16.17;75.62;101394.78;5076224;28;19912;-88
2023/10/11 00:25:16;;;;;;;;;;;;;;;16.10;75.56;101393.19;5060109;28;20413;-88
2023/10/11 00:27:49;;;;;;;;;;;;;;;16.06;75.79;101389.78;5076841;28;19963;-88
2023/10/11 00:30:17;;;;;;;;;;;;;;;16.03;76.06;101386.31;5076243;28;19916;-88
2023/10/11 00:32:46;;;;;;;;;;;;;;;16.00;76.37;101386.41;5075497;28;19916;-88
2023/10/11 00:35:24;;;;;;;;;;;;;;;16.00;76.68;101391.69;5076324;28;20081;-88
2023/10/11 00:37:54;;;;;;;;;;;;;;;15.98;76.45;101382.97;5076242;28;19937;-88
2023/10/11 00:40:33;;;;;;;;;;;;;;;15.97;76.56;101394.44;5076932;28;20336;-88
2023/10/11 00:43:01;;;;;;;;;;;;;;;15.94;76.44;101392.72;5076677;28;20364;-88
2023/10/11 00:45:31;;;;;;;;;;;;;;;15.92;76.47;101384.84;5073769;28;19962;-88
2023/10/11 00:48:01;;;;;;;;;;;;;;;15.92;76.13;101386.63;5072641;28;19924;-88
2023/10/11 00:50:30;;;;;;;;;;;;;;;15.91;76.50;101382.22;5072989;28;19913;-88
2023/10/11 00:53:00;;;;;;;;;;;;;;;15.88;76.39;101380.53;5073725;28;19917;-88
2023/10/11 00:55:31;;;;;;;;;;;;;;;15.87;76.33;101380.56;5073120;28;19928;-88
2023/10/11 00:58:02;;;;;;;;;;;;;;;15.86;76.52;101374.44;5056764;28;20361;-88
2023/10/11 01:00:36;;;;;;;;;;;;;;;15.85;76.38;101377.97;5072967;28;19999;-88
2023/10/11 01:03:05;;;;;;;;;;;;;;;15.82;76.67;101372.75;5072996;28;20328;-88
2023/10/11 01:05:33;;;;;;;;;;;;;;;15.84;76.49;101370.09;5072656;28;19955;-88
2023/10/11 01:08:01;;;;;;;;;;;;;;;15.80;76.46;101373.69;5072491;28;20323;-88
2023/10/11 01:10:29;;;;;;;;;;;;;;;15.78;76.47;101371.06;5072858;28;19982;-88
2023/10/11 01:13:08;;;;;;;;;;;;;;;15.76;76.34;101372.91;5055921;28;19921;-86
2023/10/11 01:15:38;;;;;;;;;;;;;;;15.77;76.72;101370.22;5056666;28;19964;-86
2023/10/11 01:18:07;;;;;;;;;;;;;;;15.73;76.11;101370.31;5072460;28;19912;-86
2023/10/11 01:20:46;;;;;;;;;;;;;;;;;;;;;
2023/10/11 01:23:12;;;;;;;;;;;;;;;15.73;76.77;101362.38;5075386;28;19913;-86
2023/10/11 01:25:40;;;;;;;;;;;;;;;15.62;76.78;101359.16;5076630;28;20023;-86
2023/10/11 01:28:08;;;;;;;;;;;;;;;15.56;76.64;101366.31;5076829;28;19917;-86
2023/10/11 01:30:41;;;;;;;;;;;;;;;15.53;76.98;101350.53;5077258;28;20295;-86
2023/10/11 01:33:07;;;;;;;;;;;;;;;15.46;77.29;101354.25;5076086;28;19970;-86
2023/10/11 01:35:37;;;;;;;;;;;;;;;15.47;77.34;101355.09;5076361;28;19912;-86
2023/10/11 01:38:05;;;;;;;;;;;;;;;15.44;77.19;101353.41;5059905;28;20375;-86
2023/10/11 01:40:33;;;;;;;;;;;;;;;15.43;77.46;101359.59;5076918;28;19913;-86
2023/10/11 01:43:06;;;;;;;;;;;;;;;15.38;77.40;101359.69;5075918;28;19917;-86
2023/10/11 01:45:33;;;;;;;;;;;;;;;15.34;77.74;101362.44;5063643;28;19924;-86
2023/10/11 01:48:09;;;;;;;;;;;;;;;15.31;77.48;101359.88;5096467;28;19916;-86
2023/10/11 01:50:37;;;;;;;;;;;;;;;15.28;77.75;101350.25;5080102;28;19916;-86
2023/10/11 01:53:09;;;;;;;;;;;;;;;15.24;77.92;101352.09;5095595;28;19920;-86
2023/10/11 01:55:36;;;;;;;;;;;;;;;15.21;77.79;101344.25;5095338;28;20383;-86
2023/10/11 01:58:06;;;;;;;;;;;;;;;15.19;77.93;101351.34;5096268;28;19912;-87
2023/10/11 02:00:32;;;;;;;;;;;;;;;15.17;78.10;101345.22;5079845;28;19920;-87
2023/10/11 02:03:06;;;;;;;;;;;;;;;15.16;78.16;101325.00;5095920;28;19993;-87
2023/10/11 02:05:39;;;;;;;;;;;;;;;15.16;78.10;101340.00;5096597;28;19916;-87
2023/10/11 02:08:12;;;;;;;;;;;;;;;15.13;78.18;101340.03;5095909;28;19912;-87
2023/10/11 02:10:45;;;;;;;;;;;;;;;15.09;78.24;101331.34;5096275;28;20026;-87
2023/10/11 02:13:15;;;;;;;;;;;;;;;15.10;78.22;101325.16;5095133;28;20267;-87
2023/10/11 02:15:42;;;;;;;;;;;;;;;15.04;78.34;101330.56;5096089;28;19918;-87
2023/10/11 02:18:08;;;;;;;;;;;;;;;15.01;78.29;101320.97;5079270;28;19920;-87
2023/10/11 02:20:45;;;;;;;;;;;;;;;14.97;78.67;101318.41;5062682;28;19916;-87
2023/10/11 02:23:13;;;;;;;;;;;;;;;14.95;78.63;101318.44;5063319;28;19942;-87
2023/10/11 02:25:41;;;;;;;;;;;;;;;14.93;78.63;101309.69;5095828;28;20006;-87
2023/10/11 02:28:09;;;;;;;;;;;;;;;14.86;78.79;101316.88;5094819;28;19912;-87
2023/10/11 02:30:38;;;;;;;;;;;;;;;14.86;78.90;101306.31;5095112;28;19919;-87
2023/10/11 02:33:04;;;;;;;;;;;;;;;14.82;79.36;101307.28;5095103;28;19916;-87
2023/10/11 02:35:49;;;;;;;;;;;;;;;14.77;79.25;101314.44;5095889;28;19970;-87
2023/10/11 02:38:21;;;;;;;;;;;;;;;14.74;79.42;101306.59;5096179;28;19919;-87
2023/10/11 02:40:55;;;;;;;;;;;;;;;14.73;79.36;101310.13;5095240;28;20339;-87
2023/10/11 02:43:20;;;;;;;;;;;;;;;14.68;79.51;101314.63;5096724;28;19919;-87
2023/10/11 02:45:50;;;;;;;;;;;;;;;14.65;79.59;101312.06;5078527;28;19913;-87
2023/10/11 02:48:19;;;;;;;;;;;;;;;14.68;79.56;101318.16;5078121;28;19918;-87
2023/10/11 02:50:46;;;;;;;;;;;;;;;14.66;79.67;101324.34;5078350;28;19919;-87
2023/10/11 02:53:23;;;;;;;;;;;;;;;14.64;79.69;101318.22;5077804;28;19920;-87
2023/10/11 02:56:15;;;;;;;;;;;;;;;14.59;79.99;101318.28;5078068;28;20278;-87
2023/10/11 02:58:45;;;;;;;;;;;;;;;14.59;79.75;101312.16;5077649;28;19955;-87
2023/10/11 03:01:17;;;;;;;;;;;;;;;14.54;80.20;101309.63;5077989;28;19912;-87
2023/10/11 03:03:47;;;;;;;;;;;;;;;14.52;80.01;101311.41;5078371;28;20279;-87
2023/10/11 03:06:16;;;;;;;;;;;;;;;14.48;80.68;101301.81;5077923;28;20023;-87
2023/10/11 03:08:43;;;;;;;;;;;;;;;14.44;80.49;101308.06;5077574;28;19919;-87
2023/10/11 03:11:15;;;;;;;;;;;;;;;14.39;80.85;101305.53;5077772;28;19912;-87
2023/10/11 03:13:57;;;;;;;;;;;;;;;;;;;;;
2023/10/11 03:16:43;;;;;;;;;;;;;;;14.42;80.84;101300.19;5096318;28;20360;-87
2023/10/11 03:19:13;;;;;;;;;;;;;;;14.35;81.71;101288.91;5095023;28;19922;-87
2023/10/11 03:21:38;;;;;;;;;;;;;;;14.43;81.53;101286.09;5060851;28;19924;-87
2023/10/11 03:24:05;;;;;;;;;;;;;;;14.32;81.37;101290.72;5077587;28;19919;-87
2023/10/11 03:26:33;;;;;;;;;;;;;;;14.28;81.57;101291.69;5077575;28;19912;-87
2023/10/11 03:29:04;;;;;;;;;;;;;;;14.23;81.40;101296.19;5060957;28;19920;-87
2023/10/11 03:31:33;;;;;;;;;;;;;;;14.19;81.52;101292.75;5060446;28;19970;-87
2023/10/11 03:34:00;;;;;;;;;;;;;;;14.17;81.77;101289.28;5095378;28;20228;-87
2023/10/11 03:36:35;;;;;;;;;;;;;;;14.15;82.26;101297.22;5095423;28;19919;-87
2023/10/11 03:39:17;;;;;;;;;;;;;;;14.14;82.05;101290.19;5077431;28;19916;-87
2023/10/11 03:41:46;;;;;;;;;;;;;;;14.17;82.28;101276.97;5076739;28;20279;-87
2023/10/11 03:44:20;;;;;;;;;;;;;;;14.13;82.69;101283.19;5076939;28;19938;-87
2023/10/11 03:46:54;;;;;;;;;;;;;;;14.09;82.12;101283.28;5076174;28;20363;-87
2023/10/11 03:51:53;;;;;;;;;;;;;;;13.99;82.67;101299.28;5095550;28;19916;-87
2023/10/11 03:54:22;;;;;;;;;;;;;;;13.98;82.68;101296.69;5077956;28;20046;-87
2023/10/11 03:56:56;;;;;;;;;;;;;;;13.94;82.99;101279.19;5076860;28;19912;-88
2023/10/11 03:59:25;;;;;;;;;;;;;;;13.91;83.49;101284.50;5060698;28;20010;-87
2023/10/11 04:01:56;;;;;;;;;;;;;;;13.91;83.17;101276.63;5077404;28;20370;-87
2023/10/11 04:07:25;;;;;;;;;;;;;;;13.85;83.48;101281.09;5094830;28;19919;-87
2023/10/11 04:09:55;;;;;;;;;;;;;;;13.84;83.43;101276.69;5076749;28;19912;-87
2023/10/11 04:12:29;;;;;;;;;;;;;;;13.82;84.28;101281.16;5060807;28;20267;-87
2023/10/11 04:18:14;;;;;;;;;;;;;;;13.85;84.63;101270.53;5094658;28;19935;-87
2023/10/11 04:23:45;;;;;;;;;;;;;;;13.78;84.56;101261.03;5094424;28;19922;-87
2023/10/11 04:29:17;;;;;;;;;;;;;;;13.72;85.04;101253.25;5094556;28;19927;-87
2023/10/11 04:35:00;;;;;;;;;;;;;;;13.70;85.15;101260.28;5075972;28;19916;-87
2023/10/11 04:37:36;;;;;;;;;;;;;;;13.71;85.26;101262.03;5077571;28;19913;-88
2023/10/11 04:40:23;;;;;;;;;;;;;;;13.72;85.06;101255.88;5080120;28;19923;-88
2023/10/11 04:43:20;;;;;;;;;;;;;;;13.69;85.17;101262.06;5063638;28;19920;-88
2023/10/11 04:45:51;;;;;;;;;;;;;;;13.71;84.74;101269.06;5072506;28;19920;-88
2023/10/11 04:48:29;;;;;;;;;;;;;;;13.66;85.99;101266.50;5073678;28;19954;-88
2023/10/11 04:51:06;;;;;;;;;;;;;;;13.65;85.38;101270.91;5075874;28;19951;-88
2023/10/11 04:53:58;;;;;;;;;;;;;;;13.65;86.20;101262.16;5075071;28;19958;-88
2023/10/11 04:59:36;;;;;;;;;;;;;;;13.69;85.76;101261.16;5076732;28;19913;-88
2023/10/11 05:02:51;;;;;;;;;;;;;;;13.64;85.54;101269.16;5074641;28;19919;-87
2023/10/11 05:08:21;;;;;;;;;;;;;;;13.60;85.63;101271.88;5074873;28;20387;-87
2023/10/11 05:11:02;;;;;;;;;;;;;;;13.58;85.83;101271.06;5073543;28;19956;-87
2023/10/11 05:13:59;;;;;;;;;;;;;;;13.59;86.21;101270.13;5072783;28;19920;-88
2023/10/11 05:16:29;;;;;;;;;;;;;;;13.55;86.84;101261.44;5070279;28;20279;-88
2023/10/11 05:19:05;;;;;;;;;;;;;;;13.56;86.57;101275.47;5072499;28;19951;-88
2023/10/11 05:53:14;;;;;;;;;;;;;;;13.55;87.13;101284.25;5093256;28;20349;-88
2023/10/11 05:58:49;;;;;;;;;;;;;;;13.56;87.99;101286.00;5093383;28;19919;-88
2023/10/11 06:01:26;;;;;;;;;;;;;;;13.61;87.63;101274.47;5075561;28;19958;-88
2023/10/11 06:04:08;;;;;;;;;;;;;;;13.65;87.86;101285.84;5075945;28;19912;-89
2023/10/11 06:09:43;;;;;;;;;;;;;;;13.72;87.68;101297.13;5094375;28;20331;-88
2023/10/11 06:12:23;;;;;;;;;;;;;;;13.83;86.82;101284.63;5078586;28;20014;-88
2023/10/11 06:14:56;;;;;;;;;;;;;;;13.85;87.70;101273.19;5078369;28;19912;-88
2023/10/11 06:17:48;;;;;;;;;;;;;;;13.89;87.58;101294.19;5078095;28;19912;-88
2023/10/11 06:20:26;;;;;;;;;;;;;;;13.96;86.98;101285.28;5078582;28;20007;-88
2023/10/11 06:23:14;;;;;;;;;;;;;;;14.01;87.32;101278.16;5063548;28;20007;-88
2023/10/11 06:31:06;;;;;;;;;;;;;;;14.28;86.68;101287.31;5089840;22;20473;-65
2023/10/11 06:33:34;;;;;;;;;;;;;;;14.35;86.55;101277.47;5035455;28;19932;-65
2023/10/11 06:35:59;;;;;;;;;;;;;;;14.45;86.39;101283.44;5040178;28;19931;-65
2023/10/11 06:38:29;;;;;;;;;;;;;;;14.54;85.57;101294.66;5035458;28;20016;-65
2023/10/11 06:41:36;;;;;;;;;;;;;;;14.68;85.56;101282.97;5021173;28;19921;-65
2023/10/11 06:43:40;;;;;;;;;;;;;;;14.80;85.55;101293.28;5053778;28;19913;-65
2023/10/11 06:46:07;;;;;;;;;;;;;;;15.00;84.58;101294.59;5020140;28;19917;-65
2023/10/11 06:48:32;;;;;;;;;;;;;;;15.21;84.78;101291.47;5019299;28;19920;-65
2023/10/11 06:50:59;;;;;;;;;;;;;;;15.47;83.36;101297.84;5036464;28;19917;-66
2023/10/11 06:53:25;;;;;;;;;;;;;;;15.76;81.88;101297.13;5033136;28;19925;-65
2023/10/11 06:55:51;;;;;;;;;;;;;;;16.04;81.62;101296.41;5032989;28;20254;-65
2023/10/11 06:58:19;;;;;;;;;;;;;;;16.36;80.67;101299.06;5010894;28;19921;-65
2023/10/11 07:00:47;;;;;;;;;;;;;;;16.79;79.27;101297.78;5036733;28;19959;-65
2023/10/11 07:03:38;;;;;;;;;;;;;;;17.23;78.94;101295.56;5019684;28;19924;-65
2023/10/11 07:06:01;;;;;;;;;;;;;;;17.64;78.62;101297.75;5053510;28;20445;-65
2023/10/11 07:08:34;;;;;;;;;;;;;;;17.83;77.37;101298.88;5035970;28;20337;-65
2023/10/11 07:11:10;;;;;;;;;;;;;;;18.12;77.16;101307.59;5020842;28;20346;-66
2023/10/11 07:16:24;;;;;;;;;;;;;;;18.67;75.54;101311.78;5044134;28;19971;-65
2023/10/11 07:18:54;;;;;;;;;;;;;;;18.96;74.23;101317.78;5034341;28;19913;-66
2023/10/11 07:21:19;;;;;;;;;;;;;;;19.25;75.21;101327.28;5035150;28;20291;-65
2023/10/11 07:26:23;;;;;;;;;;;;;;;19.66;73.37;101340.63;5054244;28;20364;-65
2023/10/11 07:28:50;;;;;;;;;;;;;;;19.72;72.05;101356.34;5034182;28;19959;-66
2023/10/11 07:31:17;;;;;;;;;;;;;;;19.71;72.40;101349.28;5035475;28;19931;-65
2023/10/11 07:33:42;;;;;;;;;;;;;;;19.75;72.04;101360.66;5034792;28;19982;-66
2023/10/11 07:36:11;;;;;;;;;;;;;;;19.53;71.95;101363.34;5024730;28;19917;-66
2023/10/11 07:38:37;;;;;;;;;;;;;;;19.40;72.65;101365.63;5016707;28;20023;-65
2023/10/11 07:41:17;;;;;;;;;;;;;;;19.94;72.87;101365.22;5024161;28;20285;-65
2023/10/11 07:43:43;;;;;;;;;;;;;;;20.62;70.15;101354.28;5035089;28;19917;-66
2023/10/11 07:46:08;;;;;;;;;;;;;;;21.14;69.34;101356.31;5035444;28;19963;-66
2023/10/11 07:48:35;;;;;;;;;;;;;;;21.74;68.89;101348.91;5031458;28;19917;-66
2023/10/11 07:51:09;;;;;;;;;;;;;;;21.77;63.99;101340.75;5035419;28;19917;-66
2023/10/11 07:53:35;;;;;;;;;;;;;;;21.56;67.32;101340.03;5020994;28;19917;-66
2023/10/11 07:56:00;;;;;;;;;;;;;;;21.43;67.07;101334.44;5018801;28;20351;-66
2023/10/11 07:58:32;;;;;;;;;;;;;;;21.26;68.44;101342.38;5018554;28;20015;-66
2023/10/11 08:01:02;;;;;;;;;;;;;;;21.26;68.17;101343.25;5018537;28;20357;-66
2023/10/11 08:03:34;;;;;;;;;;;;;;;21.26;68.24;101335.25;5034519;28;19940;-66
2023/10/11 08:06:00;;;;;;;;;;;;;;;21.17;68.40;101335.69;5019557;28;19916;-66
2023/10/11 08:08:30;;;;;;;;;;;;;;;21.10;68.57;101337.81;5018649;28;19928;-66
2023/10/11 08:10:58;;;;;;;;;;;;;;;21.18;67.86;101337.44;5019167;28;19924;-65
2023/10/11 08:13:24;;;;;;;;;;;;;;;21.04;67.58;101331.91;5018750;28;20380;-67
2023/10/11 08:15:55;;;;;;;;;;;;;;;20.80;67.56;101333.94;5018427;28;20031;-66
2023/10/11 08:18:21;;;;;;;;;;;;;;;20.53;69.18;101332.44;5034277;28;19959;-66
2023/10/11 08:20:47;;;;;;;;;;;;;;;20.33;70.51;101336.00;5016209;28;20318;-66
2023/10/11 08:23:16;;;;;;;;;;;;;;;20.16;71.18;101333.25;5011550;28;19921;-66
2023/10/11 08:25:48;;;;;;;;;;;;;;;20.04;72.36;101339.94;5017348;28;20001;-66
2023/10/11 08:28:19;;;;;;;;;;;;;;;19.82;72.46;101340.88;5019234;28;19923;-66
2023/10/11 08:30:45;;;;;;;;;;;;;;;19.78;71.97;101339.25;5034288;28;19921;-66
2023/10/11 08:33:12;;;;;;;;;;;;;;;19.92;72.12;101346.66;5033788;28;19928;-65
2023/10/11 08:35:38;;;;;;;;;;;;;;;20.14;71.64;101356.38;5020771;28;20313;-66
2023/10/11 08:38:06;;;;;;;;;;;;;;;20.24;71.64;101358.59;5018071;28;19947;-66
2023/10/11 08:40:35;;;;;;;;;;;;;;;20.65;69.87;101351.47;5018153;28;19921;-66
2023/10/11 08:43:02;;;;;;;;;;;;;;;20.92;69.07;101349.34;5032310;28;20032;-66
2023/10/11 08:45:28;;;;;;;;;;;;;;;20.97;69.24;101352.63;5034555;28;19917;-66
2023/10/11 08:47:54;;;;;;;;;;;;;;;20.99;68.48;101361.44;5033354;28;20309;-66
2023/10/11 08:50:20;;;;;;;;;;;;;;;21.07;68.78;101353.94;5034524;28;20006;-66
2023/10/11 08:52:46;;;;;;;;;;;;;;;21.04;68.92;101356.75;5017904;28;19921;-66
2023/10/11 08:55:19;;;;;;;;;;;;;;;21.13;68.51;101363.44;5046109;28;19916;-66
2023/10/11 08:57:47;;;;;;;;;;;;;;;21.23;68.86;101359.41;5034888;28;19925;-66
2023/10/11 09:00:25;;;;;;;;;;;;;;;21.43;68.01;101353.09;5027849;28;19978;-66
2023/10/11 09:02:52;;;;;;;;;;;;;;;21.57;67.53;101362.25;5033581;28;19952;-66
2023/10/11 09:05:32;;;;;;;;;;;;;;;21.51;68.31;101373.19;5026051;28;19917;-66
2023/10/11 09:07:57;;;;;;;;;;;;;;;21.04;68.30;101386.03;5019883;28;20007;-66
2023/10/11 09:10:25;;;;;;;;;;;;;;;20.71;70.14;101381.34;5033870;28;19967;-66
2023/10/11 09:12:56;;;;;;;;;;;;;;;20.46;70.47;101380.69;5046845;28;19952;-66
2023/10/11 09:15:21;;;;;;;;;;;;;;;20.27;71.93;101389.53;5033512;28;19917;-66
2023/10/11 09:17:50;;;;;;;;;;;;;;;19.92;72.36;101388.38;5016939;28;19928;-67
2023/10/11 09:20:16;;;;;;;;;;;;;;;19.72;73.07;101377.63;5017781;28;19967;-67
2023/10/11 09:22:47;;;;;;;;;;;;;;;19.49;73.94;101370.56;5034380;28;20408;-66
2023/10/11 09:25:21;;;;;;;;;;;;;;;19.32;74.31;101367.72;5033530;28;20011;-65
2023/10/11 09:27:48;;;;;;;;;;;;;;;19.23;74.82;101368.97;5034034;28;19959;-66
2023/10/11 09:30:20;;;;;;;;;;;;;;;19.10;75.27;101375.69;5033629;28;19922;-65
2023/10/11 09:32:49;;;;;;;;;;;;;;;19.08;75.73;101370.44;5033545;28;19917;-67
2023/10/11 09:35:33;;;;;;;;;;;;;;;19.09;75.60;101374.81;5032642;28;19948;-65
2023/10/11 09:37:59;;;;;;;;;;;;;;;19.02;75.82;101379.50;5013916;28;20023;-66
2023/10/11 09:40:31;;;;;;;;;;;;;;;18.92;76.19;101380.78;5035053;28;20007;-66
2023/10/11 09:42:57;;;;;;;;;;;;;;;18.69;76.99;101385.13;5027525;28;19913;-66
2023/10/11 09:45:26;;;;;;;;;;;;;;;18.61;77.49;101386.34;5028229;28;19928;-66
2023/10/11 09:47:54;;;;;;;;;;;;;;;18.49;77.65;101403.59;5036768;28;19916;-66
2023/10/11 09:50:22;;;;;;;;;;;;;;;18.39;78.23;101383.59;5033280;28;19920;-65
2023/10/11 09:52:49;;;;;;;;;;;;;;;18.30;80.22;101392.75;5037428;28;19916;-66
2023/10/11 09:55:19;;;;;;;;;;;;;;;18.33;78.80;101385.56;5035359;28;19920;-65
2023/10/11 09:57:55;;;;;;;;;;;;;;;18.29;79.90;101394.53;5037435;28;20003;-66
2023/10/11 10:00:50;;;;;;;;;;;;;;;18.27;79.59;101401.69;5055654;28;19917;-66
2023/10/11 10:03:16;;;;;;;;;;;;;;;18.10;80.33;101398.75;5018969;28;19913;-66
2023/10/11 10:06:00;;;;;;;;;;;;;;;18.08;81.13;101397.94;5026298;28;20557;-66
2023/10/11 10:08:28;;;;;;;;;;;;;;;18.08;81.34;101388.19;5037318;28;19940;-66
2023/10/11 10:10:54;;;;;;;;;;;;;;;17.99;81.73;101399.97;5022294;28;20387;-66
2023/10/11 10:13:24;;;;;;;;;;;;;;;17.97;81.59;101390.34;5020762;28;19921;-65
2023/10/11 10:15:52;;;;;;;;;;;;;;;17.95;82.42;101387.75;5020405;28;19921;-65
2023/10/11 10:18:19;;;;;;;;;;;;;;;17.94;81.86;101393.09;5019183;28;20407;-66
2023/10/11 10:20:45;;;;;;;;;;;;;;;17.92;82.63;101390.50;5037073;28;19913;-66
2023/10/11 10:23:16;;;;;;;;;;;;;;;17.97;81.84;101393.88;5037058;28;20299;-66
2023/10/11 10:25:46;;;;;;;;;;;;;;;18.03;82.75;101399.88;5053441;28;19916;-66
2023/10/11 10:28:47;;;;;;;;;;;;;;;18.00;83.08;101387.56;5020924;28;20284;-66
2023/10/11 10:31:16;;;;;;;;;;;;;;;18.02;83.20;101392.84;4971207;28;20305;-65
2023/10/11 10:33:43;;;;;;;;;;;;;;;18.00;83.18;101391.13;5025809;28;20296;-66
2023/10/11 10:36:18;;;;;;;;;;;;;;;18.00;83.58;101391.13;5036800;28;19912;-65
2023/10/11 10:38:58;;;;;;;;;;;;;;;18.05;83.61;101398.06;5032982;28;20249;-65
2023/10/11 10:41:27;;;;;;;;;;;;;;;18.10;84.20;101385.47;5018860;28;19921;-66
2023/10/11 10:44:09;;;;;;;;;;;;;;;18.13;83.07;101385.38;5017073;28;19968;-66
2023/10/11 10:46:36;;;;;;;;;;;;;;;18.09;83.55;101394.38;5050151;28;19916;-65
2023/10/11 10:49:04;;;;;;;;;;;;;;;18.06;83.51;101398.00;5019470;28;19928;-65
2023/10/11 10:51:36;;;;;;;;;;;;;;;18.05;83.59;101392.75;5028834;28;19975;-66
2023/10/11 10:54:12;;;;;;;;;;;;;;;17.98;83.74;101398.25;5024995;28;20016;-65
2023/10/11 10:56:38;;;;;;;;;;;;;;;17.96;85.19;101405.41;5035884;28;19992;-66
2023/10/11 10:59:14;;;;;;;;;;;;;;;17.90;85.36;101391.44;5019897;28;20011;-65
2023/10/11 11:01:40;;;;;;;;;;;;;;;17.94;84.85;101399.28;5036970;28;20368;-66
2023/10/11 11:04:08;;;;;;;;;;;;;;;17.95;85.98;101392.19;5018702;28;19921;-66
2023/10/11 11:06:45;;;;;;;;;;;;;;;17.99;85.05;101394.69;5054446;28;19963;-65
2023/10/11 11:09:14;;;;;;;;;;;;;;;17.93;85.84;101397.56;5035991;28;19913;-65
2023/10/11 11:11:42;;;;;;;;;;;;;;;17.94;86.43;101390.44;5020021;28;20012;-66
2023/10/11 11:14:10;;;;;;;;;;;;;;;17.90;86.15;101381.75;5019484;28;20449;-65
2023/10/11 11:16:44;;;;;;;;;;;;;;;17.92;86.25;101382.56;5019815;28;19917;-65
2023/10/11 11:19:16;;;;;;;;;;;;;;;17.94;86.64;101380.72;5035193;28;19913;-66
2023/10/11 11:21:44;;;;;;;;;;;;;;;17.96;86.24;101362.13;5053356;28;19924;-66
2023/10/11 11:24:17;;;;;;;;;;;;;;;17.92;86.06;101363.13;5036017;28;19916;-65
2023/10/11 11:26:43;;;;;;;;;;;;;;;17.93;86.76;101359.53;5035786;28;19920;-66
2023/10/11 11:29:09;;;;;;;;;;;;;;;18.02;86.28;101372.50;5030624;28;19917;-66
2023/10/11 11:32:14;;;;;;;;;;;;;;;18.00;87.03;101369.03;5015486;28;19932;-65
2023/10/11 11:35:02;;;;;;;;;;;;;;;18.00;86.97;101359.28;5031655;28;19917;-65
2023/10/11 11:37:29;;;;;;;;;;;;;;;18.04;86.64;101354.75;5016407;28;19917;-65
2023/10/11 11:40:17;;;;;;;;;;;;;;;18.03;86.85;101349.50;5005595;28;19921;-65
2023/10/11 11:42:40;;;;;;;;;;;;;;;18.09;86.53;101328.94;5033604;28;20308;-66
2023/10/11 11:45:08;;;;;;;;;;;;;;;18.00;86.75;101334.53;5015340;28;19921;-65
2023/10/11 11:47:34;;;;;;;;;;;;;;;18.07;87.06;101327.25;5031781;28;20324;-66
2023/10/11 11:50:04;;;;;;;;;;;;;;;18.06;86.69;101325.50;5015726;28;19917;-65
2023/10/11 11:52:30;;;;;;;;;;;;;;;18.10;86.66;101333.34;5012742;28;20087;-65
2023/10/11 11:54:55;;;;;;;;;;;;;;;18.13;87.47;101332.31;5014928;28;20008;-66
2023/10/11 11:57:29;;;;;;;;;;;;;;;18.16;86.92;101329.59;5012371;28;19940;-65
2023/10/11 11:59:55;;;;;;;;;;;;;;;18.16;86.76;101321.63;5046227;28;20042;-65
2023/10/11 12:02:20;;;;;;;;;;;;;;;18.12;87.64;101317.34;5013740;28;19921;-65
2023/10/11 12:04:47;;;;;;;;;;;;;;;18.10;87.42;101305.91;5014589;28;20266;-65
2023/10/11 12:07:13;;;;;;;;;;;;;;;18.21;87.11;101294.94;5012359;28;20001;-66
2023/10/11 12:09:38;;;;;;;;;;;;;;;18.38;86.91;101294.31;5031356;28;20376;-65
2023/10/11 12:12:05;;;;;;;;;;;;;;;18.44;87.39;101294.94;5030318;28;19932;-66
2023/10/11 12:14:37;;;;;;;;;;;;;;;18.61;86.39;101293.44;5031726;28;19921;-65
2023/10/11 12:17:09;;;;;;;;;;;;;;;18.73;86.24;101287.66;5031616;28;19917;-66
2023/10/11 12:19:42;;;;;;;;;;;;;;;18.78;85.58;101282.19;5030966;28;19913;-66
2023/10/11 12:22:08;;;;;;;;;;;;;;;18.89;85.18;101289.75;5014678;28;20371;-66
2023/10/11 12:24:35;;;;;;;;;;;;;;;18.98;85.32;101298.22;5031460;28;19917;-66
2023/10/11 12:27:00;;;;;;;;;;;;;;;19.09;84.90;101288.94;5031025;28;19928;-66
2023/10/11 12:29:29;;;;;;;;;;;;;;;19.08;84.55;101281.91;5011697;28;19917;-66
2023/10/11 12:31:54;;;;;;;;;;;;;;;19.14;84.59;101289.66;5029306;28;19921;-66
2023/10/11 12:34:24;;;;;;;;;;;;;;;19.21;84.28;101291.13;5014229;28;20373;-66
2023/10/11 12:36:52;;;;;;;;;;;;;;;19.28;84.00;101286.41;5030946;28;20392;-66
2023/10/11 12:39:20;;;;;;;;;;;;;;;19.33;83.56;101282.63;5027938;28;19968;-66
2023/10/11 12:41:49;;;;;;;;;;;;;;;19.31;83.72;101281.84;5030356;28;19952;-66
2023/10/11 12:44:18;;;;;;;;;;;;;;;19.29;83.82;101278.38;5031279;28;19917;-66
2023/10/11 12:46:44;;;;;;;;;;;;;;;19.46;83.69;101276.81;5019319;28;19917;-66
2023/10/11 12:49:18;;;;;;;;;;;;;;;19.72;82.98;101279.25;5028473;28;19917;-66
2023/10/11 12:51:45;;;;;;;;;;;;;;;19.97;82.25;101277.31;5029937;28;19952;-66
2023/10/11 12:54:15;;;;;;;;;;;;;;;20.24;81.62;101286.72;5011511;28;19917;-66
2023/10/11 12:56:42;;;;;;;;;;;;;;;20.82;81.34;101278.81;5029630;28;19920;-66
2023/10/11 12:59:12;;;;;;;;;;;;;;;20.79;78.60;101285.13;5030638;28;19917;-66
2023/10/11 13:01:52;;;;;;;;;;;;;;;20.61;78.78;101281.50;5012798;28;20015;-66
2023/10/11 13:04:18;;;;;;;;;;;;;;;20.40;79.48;101272.69;5029964;28;19913;-66
2023/10/11 13:06:49;;;;;;;;;;;;;;;20.31;80.25;101266.00;5027647;28;19914;-66
2023/10/11 13:09:15;;;;;;;;;;;;;;;20.30;80.37;101264.31;5011247;28;20017;-66
2023/10/11 13:11:44;;;;;;;;;;;;;;;20.16;80.21;101261.41;5014726;28;19925;-66
2023/10/11 13:14:18;;;;;;;;;;;;;;;20.06;81.22;101263.63;5030693;28;19913;-66
2023/10/11 13:16:48;;;;;;;;;;;;;;;20.03;81.11;101261.94;5030855;28;19913;-66
2023/10/11 13:19:17;;;;;;;;;;;;;;;19.98;81.74;101260.44;5030760;28;20040;-66
2023/10/11 13:21:53;;;;;;;;;;;;;;;19.95;81.77;101261.41;5019311;28;20012;-66
2023/10/11 13:24:22;;;;;;;;;;;;;;;19.90;82.01;101253.66;5033390;28;19927;-66
2023/10/11 13:26:54;;;;;;;;;;;;;;;19.89;82.11;101257.22;5037045;28;19913;-66
2023/10/11 13:29:20;;;;;;;;;;;;;;;19.93;82.30;101251.81;5014845;28;19921;-66
2023/10/11 13:31:53;;;;;;;;;;;;;;;19.95;82.12;101244.59;5045274;28;20011;-66
2023/10/11 13:34:19;;;;;;;;;;;;;;;19.97;82.15;101238.28;5023876;28;19948;-66
2023/10/11 13:36:44;;;;;;;;;;;;;;;20.01;82.50;101241.66;5035845;28;20013;-66
2023/10/11 13:39:25;;;;;;;;;;;;;;;20.04;82.34;101229.09;5031218;28;19940;-66
2023/10/11 13:41:54;;;;;;;;;;;;;;;20.07;82.45;101234.28;5018283;28;19921;-66
2023/10/11 13:44:21;;;;;;;;;;;;;;;20.12;82.64;101227.88;5034793;28;19913;-66
2023/10/11 13:46:51;;;;;;;;;;;;;;;20.20;82.19;101226.59;5017054;28;19925;-66
2023/10/11 13:49:24;;;;;;;;;;;;;;;20.28;82.03;101218.25;5014602;28;19918;-66
2023/10/11 13:51:50;;;;;;;;;;;;;;;20.38;81.88;101216.88;5034505;28;20580;-66
2023/10/11 13:54:31;;;;;;;;;;;;;;;20.48;81.26;101211.16;5015141;28;19917;-66
2023/10/11 13:56:58;;;;;;;;;;;;;;;20.59;81.60;101207.03;5036655;28;19948;-66
2023/10/11 13:59:24;;;;;;;;;;;;;;;20.72;80.85;101199.34;5014067;28;20353;-66
2023/10/11 14:01:59;;;;;;;;;;;;;;;20.79;80.85;101201.69;5014509;28;19967;-66
2023/10/11 14:09:45;;;;;;;;;;;;;;;20.83;80.83;101192.63;5034324;28;20343;-66
2023/10/11 14:12:15;;;;;;;;;;;;;;;20.86;80.80;101192.47;5022122;28;19921;-66
2023/10/11 14:14:40;;;;;;;;;;;;;;;20.84;80.17;101189.03;5017671;28;19929;-66
2023/10/11 14:17:08;;;;;;;;;;;;;;;20.82;80.62;101183.78;5033768;28;19921;-66